Flight Track Log - Related Links

Times and Time Zones

All times are in EST time to prevent confusion due to time zone crossing. See the N931ED flight status page for this flight to view local times or setup timezone preferences in your user account.

Time Position Orientation Groundspeed Altitude Reporting Facility
EST Latitude Longitude Course Direction KTS MPH feet Rate Location/Type
Wed 06:43:38 PM 46.9628 -114.1614 292° West 228 262 7,700  Level Salt Lake Center
Wed 06:44:39 PM 46.9853 -114.2442 292° West 234 269 11,800 3,756 Climbing Salt Lake Center
Wed 06:45:41 PM 46.9775 -114.3611 264° West 271 312 15,400 3,268 Climbing Salt Lake Center
Wed 06:46:42 PM 46.9756 -114.4756 269° West 282 325 18,500 2,732 Climbing Salt Lake Center
Wed 06:47:44 PM 46.9725 -114.5828 268° West 283 326 21,000 2,516 Climbing Salt Lake Center
Wed 06:48:46 PM 46.9692 -114.7039 268° West 297 342 23,700 2,293 Climbing Salt Lake Center
Wed 06:49:47 PM 46.9683 -114.8350 270° West 318 366 25,700 2,049 Climbing Salt Lake Center
Wed 06:50:49 PM 46.9644 -114.9694 268° West 330 380 27,900 2,081 Climbing Salt Lake Center
Wed 06:51:51 PM 46.9578 -115.1075 266° West 340 391 30,000 2,049 Climbing Salt Lake Center
Wed 06:52:52 PM 46.9550 -115.2803 269° West 355 409 32,100 2,000 Climbing Salt Lake Center
Wed 06:53:54 PM 46.9497 -115.4283 267° West 363 418 34,100 2,129 Climbing Salt Lake Center
Wed 06:54:56 PM 46.9467 -115.5786 268° West 369 425 36,500 2,293 Climbing Salt Lake Center
Wed 06:55:57 PM 46.9408 -115.7197 267° West 359 413 38,800 1,707 Climbing Salt Lake Center
Wed 06:56:59 PM 46.9358 -115.8575 267° West 347 399 40,000 511 Climbing Salt Lake Center
Wed 06:58:18 PM 46.9275 -116.0631 267° West 372 428 40,000  Level Seattle Center
Wed 06:59:19 PM 46.9206 -116.2222 266° West 387 445 40,000  Level Seattle Center
Wed 07:00:20 PM 46.9147 -116.3808 267° West 390 449 40,000  Level Seattle Center
Wed 07:01:21 PM 46.9081 -116.5406 267° West 393 452 40,000  Level Seattle Center
Wed 07:02:22 PM 46.9014 -116.6992 267° West 391 450 40,000  Level Seattle Center
Wed 07:03:23 PM 46.8944 -116.8567 266° West 389 448 40,000  Level Seattle Center
Wed 07:04:24 PM 46.8875 -117.0142 266° West 388 447 40,000  Level Seattle Center
Wed 07:05:24 PM 46.8800 -117.1742 266° West 392 451 40,000  Level Seattle Center
Wed 07:06:25 PM 46.8731 -117.3319 266° West 390 449 40,000  Level Seattle Center
Wed 07:07:26 PM 46.8647 -117.4903 266° West 390 449 40,000  Level Seattle Center
Wed 07:08:27 PM 46.8564 -117.6481 266° West 390 449 40,000  Level Seattle Center
Wed 07:09:28 PM 46.8456 -117.8364 265° West 387 445 40,000  Level Seattle Center
Wed 07:10:29 PM 46.8375 -117.9953 266° West 392 451 40,000  Level Seattle Center
Wed 07:11:30 PM 46.8289 -118.1539 266° West 393 452 40,000  Level Seattle Center
Wed 07:12:31 PM 46.8200 -118.3119 265° West 392 451 40,000  Level Seattle Center
Wed 07:13:32 PM 46.8094 -118.4700 264° West 391 450 40,000  Level Seattle Center
Wed 07:14:32 PM 46.8014 -118.6292 266° West 393 452 40,000  Level Seattle Center
Wed 07:15:33 PM 46.7906 -118.7850 264° West 390 449 40,000  Level Seattle Center
Wed 07:16:34 PM 46.7808 -118.9456 265° West 394 453 40,000  Level Seattle Center
Wed 07:17:35 PM 46.7711 -119.1031 265° West 393 452 40,000  Level Seattle Center
Wed 07:18:36 PM 46.7608 -119.2497 264° West 388 447 40,000  Level Seattle Center
Wed 07:19:37 PM 46.7489 -119.4403 265° West 393 452 40,000 -446 Level Seattle Center
Wed 07:20:37 PM 46.7381 -119.5983 264° West 394 453 39,100 -1,636 Descending Seattle Center
Wed 07:21:38 PM 46.7258 -119.7597 264° West 399 459 36,700 -2,459 Descending Seattle Center
Wed 07:22:39 PM 46.7144 -119.9239 264° West 405 466 34,100 -2,557 Descending Seattle Center
Wed 07:23:40 PM 46.7022 -120.0861 264° West 420 483 31,500 -2,557 Descending Seattle Center
Wed 07:24:41 PM 46.6894 -120.2578 264° West 427 491 28,900 -2,557 Descending Seattle Center
Wed 07:25:42 PM 46.6778 -120.4214 264° West 417 480 26,300 -2,380 Descending Seattle Center
Wed 07:26:42 PM 46.6653 -120.5850 264° West 412 474 24,100 -1,140 Descending Seattle Center
Wed 07:27:43 PM 46.6511 -120.7411 263° West 402 463 24,000 -49 Descending Seattle Center
Wed 07:28:44 PM 46.6400 -120.8900 264° West 387 445 24,000 -393 Level Seattle Center
Wed 07:29:45 PM 46.6286 -121.0378 264° West 377 434 23,200 -1,475 Descending Seattle Center
Wed 07:30:46 PM 46.6167 -121.1906 264° West 378 435 21,000 -1,525 Descending Seattle Center
Wed 07:31:47 PM 46.6025 -121.3514 263° West 390 449 20,100 -492 Descending Seattle Center
Wed 07:32:48 PM 46.5878 -121.5250 263° West 367 422 20,000 -149 Descending Seattle Center
Wed 07:33:48 PM 46.5789 -121.6508 264° West 353 406 19,800 -1,240 Descending Seattle Center
Wed 07:34:49 PM 46.6225 -121.7889 295° West 391 450 17,500 -2,476 Descending Seattle Center
Wed 07:34:51 PM 46.6300 -121.8044 305° West 376 433 17,200 -2,588 Descending Seattle Center
Wed 07:35:40 PM 46.6653 -121.9047 297° West 368 423 15,300 -2,034 Descending Seattle Center
Wed 07:35:50 PM 46.6694 -121.9169 296° West 368 423 15,200 -2,704 Descending Seattle Center
Wed 07:36:51 PM 46.7069 -122.0472 293° West 358 412 12,100 -2,718 Descending Seattle Center
Wed 07:37:47 PM 46.7653 -122.1606 307° West 321 369 9,900 -2,066 Descending Seattle Center
Wed 07:37:52 PM 46.7706 -122.1656 327° Northwest 328 377 10,000 -436 Climbing Seattle Center
Wed 07:38:42 PM 46.8153 -122.2336 314° West 261 300 9,500 -787 Descending Seattle Center
Wed 07:38:53 PM 46.8222 -122.2483 305° West 277 319 9,200 -1,500 Descending Seattle Center
Wed 07:39:42 PM 46.8653 -122.3164 313° West 264 304 8,000 -1,475 Descending Seattle Center
Wed 07:39:54 PM 46.8722 -122.3289 309° West 268 308 7,700 -1,377 Descending Seattle Center
Wed 07:40:43 PM 46.9108 -122.3986 309° West 261 300 6,600 -1,377 Descending Seattle Center
Wed 07:40:55 PM 46.9219 -122.4158 313° West 260 299 6,300 -537 Descending Seattle Center
Wed 07:41:50 PM 46.9689 -122.4869 314° West 262 302 6,000 -300 Descending Seattle Center
Wed 07:41:55 PM 46.9728 -122.4925 316° Northwest 265 305 6,000  Level Seattle Center
Wed 07:42:51 PM 47.0183 -122.5675 312° West 263 303 6,000  Level Seattle Center
Wed 07:42:56 PM 47.0206 -122.5722 305° West 260 299 6,000 111 Level Seattle Center
Wed 07:43:45 PM 47.0594 -122.6428 309° West 259 298 6,100 98 Climbing Seattle Center
Wed 07:43:57 PM 47.0681 -122.6525 322° Northwest 260 299 6,100 -627 Level Seattle Center
Wed 07:44:52 PM 47.1133 -122.7242 313° West 258 297 5,400 -885 Descending Seattle Center
Wed 07:44:58 PM 47.1158 -122.7297 303° West 258 297 5,200 -2,164 Descending Seattle Center
Wed 07:45:53 PM 47.1569 -122.8014 310° West 248 285 3,200 -2,066 Descending Seattle Center
Wed 07:45:59 PM 47.1631 -122.8131 308° West 248 285 3,100 -885 Descending Seattle Center
Wed 07:46:54 PM 47.1397 -122.8561 231° Southwest 177 204 2,300 -689 Descending Seattle Center
Wed 07:47:00 PM 47.1333 -122.8572 187° South 176 203 2,400 197 Climbing Seattle Center
Wed 07:47:55 PM 47.0983 -122.8686 192° South 137 158 2,500 98 Climbing Seattle Center
Wed 07:48:01 PM 47.0925 -122.8689 182° South 152 175 2,500 -600 Level Seattle Center
Wed 07:48:55 PM 47.0553 -122.8819 193° South 142 163 1,900 -689 Descending Seattle Center
Wed 07:49:02 PM 47.0531 -122.8794 143° Southeast 145 167 1,800 -689 Descending Seattle Center
Wed 07:49:56 PM 47.0217 -122.8900 193° South 128 147 1,200 -590 Descending Seattle Center
Wed 07:50:03 PM 47.0192 -122.8892 167° South 128 147 1,200 -353 Level Seattle Center
Wed 07:51:04 PM 46.9822 -122.9033 195° South 127 146 800 -393 Descending Seattle Center
Wed 07:53:00 PM 46.9667 -122.9000 241° Southwest  Level FlightAware Approximate

Login

Don't have an account? Register now (free) for customized features, flight alerts, and more!